Flight Track Log - Related Links

Times and Time Zones

All times are in EDT time to prevent confusion due to time zone crossing. See the SWA2353 flight status page for this flight to view local times or setup timezone preferences in your user account.

Time Position Orientation Groundspeed Altitude Reporting Facility
EDT Latitude Longitude Course Direction KTS MPH feet Rate Location/Type
Sun 10:01:59 PM 41.7833 -87.7000 196° South 197 227 2,800  Level Chicago TRACON
Sun 10:03:25 PM 41.7272 -87.6097 130° Southeast 235 270 5,900 1,297 Climbing Chicago Center
Sun 10:04:27 PM 41.6514 -87.5994 174° South 273 314 6,000 195 Climbing Chicago Center
Sun 10:05:28 PM 41.5986 -87.6567 219° Southwest 263 303 6,300 1,131 Climbing Chicago Center
Sun 10:06:29 PM 41.5542 -87.7353 233° Southwest 262 302 8,300 2,634 Climbing Chicago Center
Sun 10:07:00 PM 41.3030 -88.0531 196° South  Level FlightAware Approximate
Sun 10:07:31 PM 41.5031 -87.8153 230° Southwest 285 328 11,700  Level Chicago Center
Sun 10:08:32 PM 41.4192 -87.8503 197° South 313 360 12,100 1,918 Climbing Chicago Center
Sun 10:09:33 PM 41.3283 -87.8886 198° South 332 382 15,600 3,805 Climbing Chicago Center
Sun 10:10:35 PM 41.2083 -87.9383 197° South 366 421 19,900 3,610 Climbing Chicago Center
Sun 10:11:36 PM 41.1044 -87.9825 198° South 383 441 23,000 2,754 Climbing Chicago Center
Sun 10:12:37 PM 40.9972 -88.0258 197° South 393 452 25,500 1,475 Climbing Chicago Center
Sun 10:13:38 PM 40.8875 -88.0850 202° Southwest 421 484 26,000 244 Climbing Chicago Center
Sun 10:14:40 PM 40.7819 -88.1514 205° Southwest 420 483 26,000  Level Chicago Center
Sun 10:15:41 PM 40.6769 -88.2142 204° Southwest 417 480 26,000  Level Chicago Center
Sun 10:16:42 PM 40.5714 -88.2803 205° Southwest 419 482 26,000  Level Chicago Center
Sun 10:17:44 PM 40.4664 -88.3444 205° Southwest 418 481 26,000  Level Chicago Center
Sun 10:18:45 PM 40.3611 -88.4081 205° Southwest 418 481 26,000  Level Chicago Center
Sun 10:19:46 PM 40.2344 -88.4856 205° Southwest 419 482 26,000  Level Chicago Center
Sun 10:20:48 PM 40.1433 -88.5403 205° Southwest 420 483 26,000  Level Chicago Center
Sun 10:21:42 PM 40.0342 -88.6053 205° Southwest 425 489 26,000  Level Kansas City Center
Sun 10:22:43 PM 39.9269 -88.6681 204° Southwest 422 486 26,000  Level Kansas City Center
Sun 10:23:44 PM 39.8247 -88.7392 208° Southwest 416 479 26,000  Level Kansas City Center
Sun 10:24:45 PM 39.7367 -88.8322 219° Southwest 407 468 26,000  Level Kansas City Center
Sun 10:25:46 PM 39.6467 -88.9261 219° Southwest 410 472 26,000  Level Kansas City Center
Sun 10:26:48 PM 39.5525 -89.0222 218° Southwest 422 486 26,000  Level Kansas City Center
Sun 10:27:49 PM 39.4575 -89.1208 219° Southwest 433 498 26,000 -1,131 Level Kansas City Center
Sun 10:28:50 PM 39.3617 -89.2194 219° Southwest 434 499 23,700 -2,459 Descending Kansas City Center
Sun 10:29:51 PM 39.2731 -89.3100 218° Southwest 419 482 21,000 -2,607 Descending Kansas City Center
Sun 10:30:52 PM 39.1886 -89.3983 219° Southwest 405 466 18,400 -2,754 Descending Kansas City Center
Sun 10:31:53 PM 39.0894 -89.5006 219° Southwest 381 438 15,400 -2,732 Descending Kansas City Center
Sun 10:32:55 PM 39.0097 -89.5822 219° Southwest 369 425 12,800 -2,488 Descending Kansas City Center
Sun 10:33:56 PM 38.9389 -89.6664 223° Southwest 351 404 10,300 -1,377 Descending Kansas City Center
Sun 10:34:57 PM 38.8747 -89.7453 224° Southwest 332 382 10,000 -836 Descending Kansas City Center
Sun 10:35:58 PM 38.8211 -89.8156 226° Southwest 299 344 8,600 -1,230 Descending Kansas City Center
Sun 10:36:59 PM 38.7658 -89.8800 222° Southwest 281 323 7,500 -836 Descending Kansas City Center
Sun 10:38:00 PM 38.7028 -89.9147 203° Southwest 258 297 6,900 -927 Descending Kansas City Center
Sun 10:39:02 PM 38.6808 -89.9817 247° West 232 267 5,600 -1,073 Descending Kansas City Center
Sun 10:40:03 PM 38.6733 -90.0525 262° West 213 245 4,700 -934 Descending Kansas City Center
Sun 10:41:04 PM 38.6667 -90.1206 263° West 202 232 3,700 -787 Descending Kansas City Center
Sun 10:42:05 PM 38.6664 -90.1825 270° West 196 226 3,100 -787 Descending Kansas City Center
Sun 10:43:06 PM 38.6886 -90.2347 299° West 178 205 2,100 -787 Descending Kansas City Center
Sun 10:44:07 PM 38.7133 -90.2892 300° West 161 185 1,500 -590 Descending Kansas City Center
Sun 10:45:08 PM 38.7311 -90.3233 304° West 135 155 900 -443 Descending Kansas City Center
Sun 10:46:09 PM 38.7483 -90.3567 304° West 130 150 600 -295 Descending Kansas City Center

Login

Don't have an account? Register now (free) for customized features, flight alerts, and more!